createdAt,value
2023-05-03T00:00:31.840Z,7.56
2023-05-03T00:01:31.835Z,7.59
2023-05-03T00:02:31.862Z,7.67
2023-05-03T00:03:31.799Z,7.58
2023-05-03T00:04:31.793Z,7.55
2023-05-03T00:05:32.178Z,7.56
2023-05-03T00:06:31.803Z,7.50
2023-05-03T00:07:31.746Z,7.49
2023-05-03T00:08:31.732Z,7.50
2023-05-03T00:09:31.734Z,7.49
2023-05-03T00:10:31.703Z,7.45
2023-05-03T00:11:31.705Z,7.41
2023-05-03T00:12:31.686Z,7.37
2023-05-03T00:13:31.682Z,7.32
2023-05-03T00:14:31.666Z,7.37
2023-05-03T00:15:31.673Z,7.31
2023-05-03T00:16:31.667Z,7.31
2023-05-03T00:17:31.674Z,7.26
2023-05-03T00:18:31.618Z,7.17
2023-05-03T00:19:32.038Z,7.17
2023-05-03T00:20:31.613Z,7.23
2023-05-03T00:21:31.591Z,7.20
2023-05-03T00:22:31.588Z,7.19
2023-05-03T00:23:31.555Z,7.32
2023-05-03T00:24:31.568Z,7.26
2023-05-03T00:25:31.554Z,7.09
2023-05-03T00:26:31.530Z,7.16
2023-05-03T00:27:31.510Z,7.16
2023-05-03T00:28:31.508Z,7.27
2023-05-03T00:29:31.515Z,7.17
2023-05-03T00:30:31.476Z,7.16
2023-05-03T00:31:31.549Z,7.13
2023-05-03T00:32:31.482Z,7.20
2023-05-03T00:33:31.496Z,7.17
2023-05-03T00:34:31.429Z,7.08
2023-05-03T00:35:31.444Z,7.13
2023-05-03T00:36:31.435Z,7.07
2023-05-03T00:37:31.417Z,7.07
2023-05-03T00:38:31.422Z,7.08
2023-05-03T00:39:31.408Z,6.99
2023-05-03T00:40:31.363Z,6.95
2023-05-03T00:41:31.366Z,7.09
2023-05-03T00:42:31.341Z,6.94
2023-05-03T00:43:31.328Z,6.90
2023-05-03T00:44:31.347Z,7.04
2023-05-03T00:45:31.329Z,6.86
2023-05-03T00:46:31.305Z,6.98
2023-05-03T00:47:31.336Z,6.89
2023-05-03T00:48:31.273Z,6.90
2023-05-03T00:49:31.317Z,6.94
2023-05-03T00:50:31.273Z,6.95
2023-05-03T00:51:31.242Z,6.89
2023-05-03T00:52:31.237Z,6.84
2023-05-03T00:53:31.213Z,6.87
2023-05-03T00:54:31.251Z,6.86
2023-05-03T00:55:31.194Z,6.86
2023-05-03T00:56:35.243Z,6.89
2023-05-03T00:57:32.180Z,6.90
2023-05-03T00:58:31.160Z,6.84
2023-05-03T00:59:31.147Z,6.80
2023-05-03T01:00:31.168Z,6.84
2023-05-03T01:01:31.168Z,6.86
2023-05-03T01:02:31.250Z,6.80
2023-05-03T01:03:31.236Z,6.72
2023-05-03T01:04:31.108Z,6.81
2023-05-03T01:05:31.146Z,6.68
2023-05-03T01:06:31.124Z,6.76
2023-05-03T01:07:31.066Z,6.65
2023-05-03T01:08:31.050Z,6.76
2023-05-03T01:09:31.047Z,6.71
2023-05-03T01:10:31.037Z,6.73
2023-05-03T01:11:31.017Z,6.65
2023-05-03T01:12:31.013Z,6.63
2023-05-03T01:13:30.982Z,6.68
2023-05-03T01:14:30.993Z,6.66
2023-05-03T01:15:30.973Z,6.66
2023-05-03T01:16:31.032Z,6.62
2023-05-03T01:17:30.980Z,6.56
2023-05-03T01:18:30.931Z,6.54
2023-05-03T01:19:30.943Z,6.54
2023-05-03T01:20:30.968Z,6.56
2023-05-03T01:21:30.931Z,6.46
2023-05-03T01:22:30.902Z,6.56
2023-05-03T01:23:30.884Z,6.56
2023-05-03T01:24:30.876Z,6.65
2023-05-03T01:25:30.849Z,6.53
2023-05-03T01:26:30.867Z,6.54
2023-05-03T01:27:30.850Z,6.48
2023-05-03T01:28:30.820Z,6.50
2023-05-03T01:29:30.801Z,6.46
2023-05-03T01:30:30.793Z,6.53
2023-05-03T01:31:30.836Z,6.47
2023-05-03T01:32:30.821Z,6.46
2023-05-03T01:33:30.757Z,6.53
2023-05-03T01:34:30.762Z,6.56
2023-05-03T01:35:30.737Z,6.46
2023-05-03T01:36:30.734Z,6.40
2023-05-03T01:37:30.761Z,6.44
2023-05-03T01:38:30.723Z,6.43
2023-05-03T01:39:30.693Z,6.38
2023-05-03T01:40:30.717Z,6.33
2023-05-03T01:41:30.733Z,6.36
2023-05-03T01:42:30.704Z,6.43
2023-05-03T01:43:30.664Z,6.28
2023-05-03T01:44:30.673Z,6.35
2023-05-03T01:45:30.713Z,6.35
2023-05-03T01:46:30.650Z,6.47
2023-05-03T01:47:30.667Z,6.32
2023-05-03T01:48:30.619Z,6.33
2023-05-03T01:49:30.591Z,6.29
2023-05-03T01:50:30.584Z,6.25
2023-05-03T01:51:30.564Z,6.26
2023-05-03T01:52:30.577Z,6.35
2023-05-03T01:53:30.556Z,6.30
2023-05-03T01:54:30.549Z,6.38
2023-05-03T01:55:30.528Z,6.35
2023-05-03T01:56:30.520Z,6.36
2023-05-03T01:57:30.516Z,6.26
2023-05-03T01:58:30.481Z,6.26
2023-05-03T01:59:30.461Z,6.19
2023-05-03T02:00:30.453Z,6.19
2023-05-03T02:01:30.495Z,6.14
2023-05-03T02:02:30.477Z,6.18
2023-05-03T02:03:30.432Z,6.07
2023-05-03T02:04:30.499Z,6.10
2023-05-03T02:05:30.395Z,6.10
2023-05-03T02:06:30.460Z,6.01
2023-05-03T02:07:30.402Z,6.07
2023-05-03T02:08:30.383Z,6.13
2023-05-03T02:09:30.373Z,5.92
2023-05-03T02:10:30.340Z,5.93
2023-05-03T02:11:30.327Z,6.03
2023-05-03T02:12:30.341Z,5.93
2023-05-03T02:13:30.344Z,5.85
2023-05-03T02:14:30.310Z,6.06
2023-05-03T02:15:30.278Z,5.86
2023-05-03T02:16:30.362Z,5.98
2023-05-03T02:17:30.298Z,5.92
2023-05-03T02:18:30.272Z,5.96
2023-05-03T02:19:30.240Z,5.82
2023-05-03T02:20:30.251Z,5.78
2023-05-03T02:21:30.230Z,5.85
2023-05-03T02:22:30.230Z,5.86
2023-05-03T02:23:30.217Z,5.81
2023-05-03T02:24:30.187Z,5.86
2023-05-03T02:25:30.210Z,5.77
2023-05-03T02:26:30.194Z,5.86
2023-05-03T02:27:30.207Z,5.64
2023-05-03T02:28:30.155Z,5.82
2023-05-03T02:29:30.126Z,5.73
2023-05-03T02:30:30.131Z,5.78
2023-05-03T02:31:30.202Z,5.64
2023-05-03T02:32:30.132Z,5.68
2023-05-03T02:33:30.123Z,5.68
2023-05-03T02:34:30.084Z,5.71
2023-05-03T02:35:30.058Z,5.67
2023-05-03T02:36:30.050Z,5.70
2023-05-03T02:37:30.030Z,5.68
2023-05-03T02:38:30.052Z,5.66
2023-05-03T02:39:30.032Z,5.67
2023-05-03T02:40:30.095Z,5.63
2023-05-03T02:41:30.003Z,5.63
2023-05-03T02:42:29.980Z,5.60
2023-05-03T02:43:29.999Z,5.74
2023-05-03T02:44:31.335Z,5.60
2023-05-03T02:45:29.958Z,5.53
2023-05-03T02:46:29.988Z,5.60
2023-05-03T02:47:29.956Z,5.63
2023-05-03T02:48:29.925Z,5.48
2023-05-03T02:49:29.928Z,5.56
2023-05-03T02:50:29.885Z,5.56
2023-05-03T02:51:29.887Z,5.55
2023-05-03T02:52:29.873Z,5.55
2023-05-03T02:53:29.847Z,5.56
2023-05-03T02:54:29.837Z,5.43
2023-05-03T02:55:29.843Z,5.53
2023-05-03T02:56:29.851Z,5.63
2023-05-03T02:57:29.850Z,5.63
2023-05-03T02:58:29.797Z,5.64
2023-05-03T02:59:29.806Z,5.49
2023-05-03T03:00:29.794Z,5.57
2023-05-03T03:01:29.827Z,5.55
2023-05-03T03:02:29.888Z,5.52
2023-05-03T03:03:29.943Z,5.55
2023-05-03T03:04:29.757Z,5.46
2023-05-03T03:05:29.765Z,5.43
2023-05-03T03:06:29.914Z,5.52
2023-05-03T03:07:29.692Z,5.52
2023-05-03T03:08:29.682Z,5.43
2023-05-03T03:09:29.679Z,5.53
2023-05-03T03:10:29.672Z,5.49
2023-05-03T03:11:29.711Z,5.59
2023-05-03T03:12:29.642Z,5.41
2023-05-03T03:13:29.639Z,5.46
2023-05-03T03:14:29.616Z,5.50
2023-05-03T03:15:29.598Z,5.38
2023-05-03T03:16:29.610Z,5.46
2023-05-03T03:17:29.636Z,5.43
2023-05-03T03:18:29.567Z,5.38
2023-05-03T03:19:29.550Z,5.41
2023-05-03T03:20:29.564Z,5.38
2023-05-03T03:21:29.527Z,5.37
2023-05-03T03:22:29.520Z,5.41
2023-05-03T03:23:29.538Z,5.43
2023-05-03T03:24:29.496Z,5.49
2023-05-03T03:25:29.496Z,5.48
2023-05-03T03:26:29.491Z,5.38
2023-05-03T03:27:29.471Z,5.35
2023-05-03T03:28:29.464Z,5.45
2023-05-03T03:29:29.486Z,5.45
2023-05-03T03:30:29.444Z,5.32
2023-05-03T03:31:29.471Z,5.34
2023-05-03T03:32:29.410Z,5.27
2023-05-03T03:33:29.410Z,5.32
2023-05-03T03:34:29.403Z,5.23
2023-05-03T03:35:29.419Z,5.28
2023-05-03T03:36:29.400Z,5.23
2023-05-03T03:37:29.348Z,5.34
2023-05-03T03:38:29.377Z,5.37
2023-05-03T03:39:29.334Z,5.27
2023-05-03T03:40:29.316Z,5.31
2023-05-03T03:41:29.330Z,5.28
2023-05-03T03:42:29.295Z,5.23
2023-05-03T03:43:29.301Z,5.20
2023-05-03T03:44:29.284Z,5.22
2023-05-03T03:45:29.293Z,5.13
2023-05-03T03:46:29.309Z,5.09
2023-05-03T03:47:29.272Z,5.07
2023-05-03T03:48:29.251Z,5.09
2023-05-03T03:49:29.225Z,5.12
2023-05-03T03:50:29.207Z,5.12
2023-05-03T03:51:29.207Z,5.13
2023-05-03T03:52:29.180Z,5.10
2023-05-03T03:53:29.195Z,5.09
2023-05-03T03:54:29.164Z,5.02
2023-05-03T03:55:29.171Z,4.98
2023-05-03T03:56:29.136Z,5.04
2023-05-03T03:57:29.123Z,5.13
2023-05-03T03:58:29.118Z,5.02
2023-05-03T03:59:29.114Z,5.02
2023-05-03T04:00:29.094Z,5.01
2023-05-03T04:01:29.097Z,4.99
2023-05-03T04:02:29.157Z,4.98
2023-05-03T04:03:29.139Z,4.96
2023-05-03T04:04:29.195Z,4.91
2023-05-03T04:05:29.059Z,4.92
2023-05-03T04:06:29.133Z,4.96
2023-05-03T04:07:29.008Z,4.96
2023-05-03T04:08:29.014Z,4.96
2023-05-03T04:09:28.988Z,4.96
2023-05-03T04:10:28.983Z,4.95
2023-05-03T04:11:28.962Z,5.05
2023-05-03T04:12:28.961Z,4.95
2023-05-03T04:13:28.955Z,4.99
2023-05-03T04:14:28.934Z,5.04
2023-05-03T04:15:28.938Z,4.95
2023-05-03T04:16:28.966Z,4.89
2023-05-03T04:17:28.957Z,4.89
2023-05-03T04:18:28.914Z,4.99
2023-05-03T04:19:28.891Z,4.96
2023-05-03T04:20:28.867Z,4.89
2023-05-03T04:21:28.860Z,4.92
2023-05-03T04:22:28.857Z,4.96
2023-05-03T04:23:28.845Z,5.04
2023-05-03T04:24:28.836Z,4.99
2023-05-03T04:25:28.866Z,4.96
2023-05-03T04:26:32.263Z,5.01
2023-05-03T04:27:28.795Z,5.02
2023-05-03T04:28:28.811Z,5.01
2023-05-03T04:29:28.776Z,4.98
2023-05-03T04:30:28.757Z,5.01
2023-05-03T04:31:28.923Z,4.95
2023-05-03T04:32:28.773Z,5.01
2023-05-03T04:33:28.752Z,5.01
2023-05-03T04:34:28.705Z,5.07
2023-05-03T04:35:28.693Z,4.98
2023-05-03T04:36:28.698Z,5.07
2023-05-03T04:37:28.675Z,5.02
2023-05-03T04:38:28.688Z,5.04
2023-05-03T04:39:28.660Z,5.01
2023-05-03T04:40:28.642Z,5.13
2023-05-03T04:41:28.641Z,5.13
2023-05-03T04:42:28.627Z,5.02
2023-05-03T04:43:28.633Z,5.04
2023-05-03T04:44:28.596Z,4.99
2023-05-03T04:45:28.590Z,5.04
2023-05-03T04:46:28.658Z,5.14
2023-05-03T04:47:28.581Z,5.10
2023-05-03T04:48:28.561Z,5.09
2023-05-03T04:49:28.569Z,5.23
2023-05-03T04:50:28.526Z,5.12
2023-05-03T04:51:28.518Z,5.12
2023-05-03T04:52:28.502Z,5.12
2023-05-03T04:53:28.501Z,5.25
2023-05-03T04:54:28.517Z,5.16
2023-05-03T04:55:28.501Z,5.32
2023-05-03T04:56:28.472Z,5.16
2023-05-03T04:57:28.442Z,5.20
2023-05-03T04:58:28.450Z,5.25
2023-05-03T04:59:28.451Z,5.40
2023-05-03T05:00:28.408Z,5.32
2023-05-03T05:01:28.477Z,5.50
2023-05-03T05:02:28.625Z,5.38
2023-05-03T05:03:28.478Z,5.45
2023-05-03T05:04:28.435Z,5.41
2023-05-03T05:05:28.387Z,5.37
2023-05-03T05:06:28.381Z,5.53
2023-05-03T05:07:28.346Z,5.55
2023-05-03T05:08:28.336Z,5.48
2023-05-03T05:09:28.321Z,5.57
2023-05-03T05:10:28.300Z,5.60
2023-05-03T05:11:28.297Z,5.68
2023-05-03T05:12:28.287Z,5.70
2023-05-03T05:13:28.267Z,5.70
2023-05-03T05:14:28.325Z,5.73
2023-05-03T05:15:28.274Z,5.86
2023-05-03T05:16:28.274Z,5.81
2023-05-03T05:17:28.309Z,5.91
2023-05-03T05:18:28.228Z,5.96
2023-05-03T05:19:28.249Z,6.14
2023-05-03T05:20:28.181Z,6.25
2023-05-03T05:21:28.208Z,6.28
2023-05-03T05:22:28.171Z,6.44
2023-05-03T05:23:28.181Z,6.61
2023-05-03T05:24:28.180Z,6.61
2023-05-03T05:25:28.308Z,6.68
2023-05-03T05:26:28.129Z,6.84
2023-05-03T05:27:28.121Z,6.80
2023-05-03T05:28:28.102Z,7.04
2023-05-03T05:29:28.090Z,7.07
2023-05-03T05:30:28.113Z,7.07
2023-05-03T05:31:28.082Z,7.17
2023-05-03T05:32:28.051Z,7.19
2023-05-03T05:33:28.057Z,7.38
2023-05-03T05:34:28.038Z,7.56
2023-05-03T05:35:28.034Z,7.81
2023-05-03T05:36:28.001Z,7.90
2023-05-03T05:37:28.013Z,7.94
2023-05-03T05:38:27.999Z,8.02
2023-05-03T05:39:28.207Z,8.03
2023-05-03T05:40:27.986Z,8.00
2023-05-03T05:41:27.961Z,7.93
2023-05-03T05:42:27.961Z,8.00
2023-05-03T05:43:27.924Z,8.00
2023-05-03T05:44:27.934Z,8.20
2023-05-03T05:45:27.915Z,8.17
2023-05-03T05:46:27.915Z,8.12
2023-05-03T05:47:27.939Z,8.35
2023-05-03T05:48:27.874Z,8.32
2023-05-03T05:49:27.854Z,8.48
2023-05-03T05:50:27.877Z,8.72
2023-05-03T05:51:27.840Z,8.87
2023-05-03T05:52:27.831Z,9.05
2023-05-03T05:53:27.838Z,9.06
2023-05-03T05:54:28.626Z,9.10
2023-05-03T05:55:27.820Z,9.05
2023-05-03T05:56:27.778Z,9.27
2023-05-03T05:57:27.777Z,9.40
2023-05-03T05:58:27.762Z,9.53
2023-05-03T05:59:27.742Z,9.52
2023-05-03T06:00:27.764Z,9.67
2023-05-03T06:01:27.751Z,9.57
2023-05-03T06:02:27.834Z,9.64
2023-05-03T06:03:27.717Z,9.63
2023-05-03T06:04:27.697Z,9.75
2023-05-03T06:05:27.760Z,9.79
2023-05-03T06:06:27.742Z,9.73
2023-05-03T06:07:27.653Z,9.53
2023-05-03T06:08:27.664Z,9.50
2023-05-03T06:09:27.779Z,9.40
2023-05-03T06:10:27.620Z,9.38
2023-05-03T06:11:27.646Z,9.35
2023-05-03T06:12:27.630Z,9.42
2023-05-03T06:13:27.598Z,9.61
2023-05-03T06:14:27.571Z,9.71
2023-05-03T06:15:27.597Z,9.82
2023-05-03T06:16:27.602Z,10.04
2023-05-03T06:17:27.566Z,10.21
2023-05-03T06:18:27.539Z,10.33
2023-05-03T06:19:27.530Z,10.58
2023-05-03T06:20:27.515Z,10.71
2023-05-03T06:21:27.507Z,10.94
2023-05-03T06:22:27.496Z,11.09
2023-05-03T06:23:27.477Z,11.36
2023-05-03T06:24:27.460Z,11.54
2023-05-03T06:25:27.496Z,11.72
2023-05-03T06:26:27.434Z,11.94
2023-05-03T06:27:27.436Z,12.21
2023-05-03T06:28:27.423Z,12.41
2023-05-03T06:29:27.413Z,12.60
2023-05-03T06:30:27.427Z,12.66
2023-05-03T06:31:27.534Z,12.88
2023-05-03T06:32:27.420Z,12.82
2023-05-03T06:33:27.370Z,13.02
2023-05-03T06:34:27.352Z,13.04
2023-05-03T06:35:27.347Z,12.96
2023-05-03T06:36:27.316Z,13.03
2023-05-03T06:37:27.340Z,13.12
2023-05-03T06:38:27.294Z,13.22
2023-05-03T06:39:27.316Z,13.14
2023-05-03T06:40:27.373Z,13.21
2023-05-03T06:41:27.306Z,13.36
2023-05-03T06:42:27.249Z,13.43
2023-05-03T06:43:27.249Z,13.25
2023-05-03T06:44:27.240Z,13.04
2023-05-03T06:45:27.261Z,13.09
2023-05-03T06:46:27.265Z,13.20
2023-05-03T06:47:27.314Z,13.37
2023-05-03T06:48:27.355Z,13.41
2023-05-03T06:49:27.209Z,13.24
2023-05-03T06:50:27.160Z,13.14
2023-05-03T06:51:27.154Z,13.11
2023-05-03T06:52:27.148Z,12.95
2023-05-03T06:53:27.151Z,13.12
2023-05-03T06:54:27.168Z,12.99
2023-05-03T06:55:27.110Z,13.00
2023-05-03T06:56:27.091Z,12.89
2023-05-03T06:57:28.670Z,12.87
2023-05-03T06:58:27.091Z,12.67
2023-05-03T06:59:27.070Z,12.52
2023-05-03T07:00:27.139Z,12.44
2023-05-03T07:01:27.132Z,12.27
2023-05-03T07:02:27.235Z,12.52
2023-05-03T07:03:27.293Z,12.71
2023-05-03T07:04:27.005Z,12.93
2023-05-03T07:05:27.010Z,12.99
2023-05-03T07:06:27.018Z,13.09
2023-05-03T07:07:26.980Z,13.27
2023-05-03T07:08:26.982Z,13.30
2023-05-03T07:10:27.206Z,13.47
2023-05-03T07:11:26.942Z,13.49
2023-05-03T07:12:26.919Z,13.58
2023-05-03T07:13:26.957Z,13.56
2023-05-03T07:14:26.883Z,13.69
2023-05-03T07:15:26.889Z,13.74
2023-05-03T07:16:26.919Z,13.77
2023-05-03T07:17:26.915Z,13.89
2023-05-03T07:18:26.839Z,13.91
2023-05-03T07:19:26.869Z,13.91
2023-05-03T07:20:26.816Z,13.99
2023-05-03T07:21:26.823Z,14.12
2023-05-03T07:22:26.791Z,14.17
2023-05-03T07:23:26.785Z,14.12
2023-05-03T07:24:26.789Z,14.32
2023-05-03T07:25:26.810Z,14.21
2023-05-03T07:26:26.766Z,14.44
2023-05-03T07:27:26.773Z,14.34
2023-05-03T07:28:26.731Z,14.42
2023-05-03T07:29:26.825Z,14.24
2023-05-03T07:30:26.707Z,14.17
2023-05-03T07:31:26.716Z,14.07
2023-05-03T07:32:26.779Z,14.01
2023-05-03T07:33:26.811Z,14.17
2023-05-03T07:34:26.670Z,14.32
2023-05-03T07:35:26.669Z,14.38
2023-05-03T07:36:26.633Z,14.64
2023-05-03T07:37:26.637Z,14.88
2023-05-03T07:38:26.610Z,15.06
2023-05-03T07:39:26.655Z,15.28
2023-05-03T07:40:26.601Z,15.43
2023-05-03T07:41:26.610Z,15.56
2023-05-03T07:42:26.568Z,15.70
2023-05-03T07:43:26.568Z,15.82
2023-05-03T07:44:26.542Z,15.86
2023-05-03T07:45:26.606Z,15.84
2023-05-03T07:46:26.628Z,15.82
2023-05-03T07:47:26.559Z,15.76
2023-05-03T07:48:26.509Z,15.66
2023-05-03T07:49:26.485Z,15.49
2023-05-03T07:50:26.477Z,15.49
2023-05-03T07:51:26.482Z,15.35
2023-05-03T07:52:26.455Z,15.41
2023-05-03T07:53:26.452Z,15.41
2023-05-03T07:54:26.430Z,15.64
2023-05-03T07:55:26.417Z,15.76
2023-05-03T07:56:26.421Z,16.01
2023-05-03T07:57:26.400Z,16.33
2023-05-03T07:58:38.865Z,16.55
2023-05-03T07:59:27.418Z,16.96
2023-05-03T08:00:26.362Z,16.45
2023-05-03T08:01:26.428Z,16.12
2023-05-03T08:02:26.460Z,16.35
2023-05-03T08:03:26.456Z,16.50
2023-05-03T08:04:26.798Z,16.59
2023-05-03T08:05:26.349Z,16.68
2023-05-03T08:06:26.408Z,16.80
2023-05-03T08:07:26.324Z,16.92
2023-05-03T08:08:26.265Z,17.08
2023-05-03T08:09:26.270Z,17.20
2023-05-03T08:10:26.246Z,17.08
2023-05-03T08:11:26.239Z,17.08
2023-05-03T08:12:26.261Z,16.80
2023-05-03T08:13:26.215Z,16.65
2023-05-03T08:14:26.213Z,16.40
2023-05-03T08:15:26.210Z,16.58
2023-05-03T08:16:26.325Z,16.68
2023-05-03T08:17:26.211Z,16.93
2023-05-03T08:18:26.164Z,17.04
2023-05-03T08:19:26.145Z,17.17
2023-05-03T08:20:26.165Z,17.28
2023-05-03T08:21:26.225Z,17.73
2023-05-03T08:22:26.125Z,18.00
2023-05-03T08:23:26.110Z,18.17
2023-05-03T08:24:26.084Z,18.36
2023-05-03T08:25:26.109Z,18.52
2023-05-03T08:26:26.110Z,18.80
2023-05-03T08:27:26.100Z,18.77
2023-05-03T08:28:26.056Z,18.92
2023-05-03T08:29:27.586Z,18.80
2023-05-03T08:30:26.032Z,18.54
2023-05-03T08:31:26.094Z,18.36
2023-05-03T08:32:26.008Z,18.13
2023-05-03T08:33:26.246Z,17.91
2023-05-03T08:34:25.979Z,17.82
2023-05-03T08:35:25.976Z,17.87
2023-05-03T08:36:25.971Z,17.88
2023-05-03T08:37:25.944Z,18.07
2023-05-03T08:38:25.947Z,18.31
2023-05-03T08:39:25.926Z,18.49
2023-05-03T08:40:25.909Z,18.70
2023-05-03T08:41:25.906Z,18.73
2023-05-03T08:42:25.979Z,18.83
2023-05-03T08:43:25.879Z,18.67
2023-05-03T08:44:25.881Z,18.79
2023-05-03T08:45:25.866Z,18.65
2023-05-03T08:46:25.861Z,18.57
2023-05-03T08:47:25.865Z,18.76
2023-05-03T08:48:25.829Z,18.83
2023-05-03T08:49:25.831Z,19.14
2023-05-03T08:50:25.809Z,19.31
2023-05-03T08:51:25.779Z,19.39
2023-05-03T08:52:25.778Z,19.39
2023-05-03T08:53:25.787Z,19.47
2023-05-03T08:54:25.762Z,19.55
2023-05-03T08:55:25.750Z,19.76
2023-05-03T08:56:25.743Z,19.86
2023-05-03T08:57:25.733Z,19.95
2023-05-03T08:58:25.714Z,20.18
2023-05-03T08:59:25.698Z,20.16
2023-05-03T09:00:25.686Z,20.33
2023-05-03T09:01:25.699Z,20.51
2023-05-03T09:02:25.798Z,20.77
2023-05-03T09:03:25.730Z,20.79
2023-05-03T09:04:25.744Z,20.89
2023-05-03T09:05:25.666Z,21.05
2023-05-03T09:06:25.644Z,21.21
2023-05-03T09:07:25.620Z,21.24
2023-05-03T09:08:25.607Z,21.41
2023-05-03T09:09:25.590Z,21.61
2023-05-03T09:10:25.565Z,21.66
2023-05-03T09:11:25.556Z,21.34
2023-05-03T09:12:25.540Z,20.86
2023-05-03T09:13:25.571Z,20.51
2023-05-03T09:14:25.531Z,20.53
2023-05-03T09:15:25.543Z,20.66
2023-05-03T09:16:25.510Z,20.64
2023-05-03T09:17:25.485Z,20.83
2023-05-03T09:18:25.475Z,21.01
2023-05-03T09:19:25.494Z,20.95
2023-05-03T09:20:25.460Z,21.05
2023-05-03T09:21:25.463Z,20.99
2023-05-03T09:22:25.448Z,20.99
2023-05-03T09:23:25.438Z,20.77
2023-05-03T09:24:25.427Z,20.50
2023-05-03T09:25:25.394Z,20.56
2023-05-03T09:26:25.387Z,20.58
2023-05-03T09:27:25.384Z,20.72
2023-05-03T09:28:25.366Z,20.95
2023-05-03T09:29:25.399Z,21.04
2023-05-03T09:30:25.344Z,20.74
2023-05-03T09:31:25.366Z,20.24
2023-05-03T09:32:25.452Z,19.87
2023-05-03T09:33:25.326Z,19.88
2023-05-03T09:34:25.326Z,19.90
2023-05-03T09:35:25.306Z,20.16
2023-05-03T09:36:25.275Z,20.35
2023-05-03T09:37:25.307Z,20.66
2023-05-03T09:38:25.253Z,20.93
2023-05-03T09:39:25.240Z,20.98
2023-05-03T09:40:25.254Z,21.23
2023-05-03T09:41:25.233Z,21.32
2023-05-03T09:42:25.208Z,21.63
2023-05-03T09:43:25.217Z,21.69
2023-05-03T09:44:25.187Z,21.81
2023-05-03T09:45:25.192Z,21.42
2023-05-03T09:46:25.369Z,21.42
2023-05-03T09:47:25.161Z,21.57
2023-05-03T09:48:25.156Z,21.67
2023-05-03T09:49:25.141Z,21.69
2023-05-03T09:50:25.140Z,21.48
2023-05-03T09:51:25.153Z,21.13
2023-05-03T09:52:25.112Z,21.06
2023-05-03T09:53:25.113Z,20.91
2023-05-03T09:54:25.715Z,20.79
2023-05-03T09:55:25.060Z,20.54
2023-05-03T09:56:25.083Z,20.33
2023-05-03T09:57:25.055Z,20.42
2023-05-03T09:58:25.047Z,20.59
2023-05-03T09:59:25.033Z,20.66
2023-05-03T10:00:25.026Z,20.90
2023-05-03T10:01:25.282Z,20.93
2023-05-03T10:02:25.016Z,21.05
2023-05-03T10:03:25.115Z,20.43
2023-05-03T10:04:25.099Z,20.00
2023-05-03T10:05:24.966Z,19.88
2023-05-03T10:06:25.020Z,20.15
2023-05-03T10:07:24.928Z,20.34
2023-05-03T10:08:24.963Z,20.54
2023-05-03T10:09:24.947Z,20.72
2023-05-03T10:10:24.912Z,20.83
2023-05-03T10:11:24.925Z,20.81
2023-05-03T10:12:24.878Z,20.51
2023-05-03T10:13:24.879Z,20.50
2023-05-03T10:14:24.866Z,20.35
2023-05-03T10:15:24.842Z,20.33
2023-05-03T10:16:24.969Z,20.66
2023-05-03T10:17:32.350Z,20.81
2023-05-03T10:18:25.859Z,20.96
2023-05-03T10:19:24.802Z,21.19
2023-05-03T10:20:25.318Z,21.26
2023-05-03T10:21:24.786Z,21.14
2023-05-03T10:22:24.801Z,21.20
2023-05-03T10:23:24.756Z,21.17
2023-05-03T10:24:24.769Z,21.04
2023-05-03T10:25:24.774Z,21.05
2023-05-03T10:26:24.752Z,21.13
2023-05-03T10:27:24.737Z,21.17
2023-05-03T10:28:24.721Z,21.24
2023-05-03T10:29:24.685Z,21.39
2023-05-03T10:30:24.694Z,21.20
2023-05-03T10:31:24.712Z,21.16
2023-05-03T10:32:24.761Z,20.96
2023-05-03T10:33:24.635Z,20.95
2023-05-03T10:34:24.722Z,20.74
2023-05-03T10:35:24.625Z,20.53
2023-05-03T10:36:26.025Z,19.86
2023-05-03T10:37:24.620Z,19.43
2023-05-03T10:38:24.597Z,19.32
2023-05-03T10:39:24.572Z,19.33
2023-05-03T10:40:24.585Z,19.47
2023-05-03T10:41:24.579Z,19.66
2023-05-03T10:42:24.558Z,19.73
2023-05-03T10:43:24.528Z,19.94
2023-05-03T10:44:24.531Z,20.24
2023-05-03T10:45:24.526Z,20.43
2023-05-03T10:46:24.553Z,20.47
2023-05-03T10:47:24.577Z,20.64
2023-05-03T10:48:24.486Z,20.72
2023-05-03T10:49:24.475Z,20.76
2023-05-03T10:50:24.463Z,20.90
2023-05-03T10:51:24.451Z,21.02
2023-05-03T10:52:24.444Z,21.11
2023-05-03T10:53:24.438Z,21.30
2023-05-03T10:54:24.422Z,21.48
2023-05-03T10:55:24.406Z,21.56
2023-05-03T10:56:24.386Z,21.82
2023-05-03T10:57:24.444Z,21.98
2023-05-03T10:58:24.390Z,21.97
2023-05-03T10:59:24.369Z,22.12
2023-05-03T11:00:24.359Z,22.14
2023-05-03T11:01:24.377Z,22.22
2023-05-03T11:02:24.366Z,22.09
2023-05-03T11:03:24.341Z,21.91
2023-05-03T11:04:24.384Z,21.88
2023-05-03T11:05:24.309Z,21.67
2023-05-03T11:06:24.332Z,21.42
2023-05-03T11:07:24.276Z,21.35
2023-05-03T11:08:24.282Z,21.27
2023-05-03T11:09:24.249Z,21.05
2023-05-03T11:10:24.241Z,20.91
2023-05-03T11:11:24.226Z,20.89
2023-05-03T11:12:24.253Z,21.01
2023-05-03T11:13:24.252Z,20.90
2023-05-03T11:14:24.202Z,21.02
2023-05-03T11:15:24.168Z,21.02
2023-05-03T11:17:41.130Z,20.84
2023-05-03T11:18:33.971Z,20.58
2023-05-03T11:19:33.986Z,20.51
2023-05-03T11:20:33.967Z,20.49
2023-05-03T11:21:33.936Z,20.49
2023-05-03T11:22:33.927Z,20.34
2023-05-03T11:23:33.906Z,20.34
2023-05-03T11:24:33.906Z,20.24
2023-05-03T11:25:33.914Z,19.91
2023-05-03T11:26:33.931Z,19.72
2023-05-03T11:27:33.879Z,19.63
2023-05-03T11:28:33.958Z,19.68
2023-05-03T11:29:33.864Z,19.80
2023-05-03T11:30:33.855Z,19.98
2023-05-03T11:31:35.199Z,20.09
2023-05-03T11:32:33.881Z,20.03
2023-05-03T11:33:33.810Z,19.88
2023-05-03T11:34:33.792Z,19.75
2023-05-03T11:35:33.783Z,19.80
2023-05-03T11:36:33.778Z,19.86
2023-05-03T11:37:33.761Z,20.00
2023-05-03T11:38:33.755Z,20.20
2023-05-03T11:39:33.741Z,20.27
2023-05-03T11:40:33.732Z,20.56
2023-05-03T11:41:33.723Z,20.66
2023-05-03T11:42:33.788Z,20.81
2023-05-03T11:43:33.722Z,20.86
2023-05-03T11:44:33.711Z,21.08
2023-05-03T11:45:33.712Z,21.21
2023-05-03T11:46:33.710Z,21.14
2023-05-03T11:47:33.645Z,21.19
2023-05-03T11:48:33.738Z,21.04
2023-05-03T11:49:33.611Z,20.93
2023-05-03T11:50:33.613Z,20.71
2023-05-03T11:51:33.613Z,20.46
2023-05-03T11:52:33.576Z,20.05
2023-05-03T11:53:33.591Z,19.78
2023-05-03T11:54:33.552Z,19.69
2023-05-03T11:55:33.568Z,19.66
2023-05-03T11:56:33.535Z,19.76
2023-05-03T11:57:33.532Z,20.02
2023-05-03T11:58:33.529Z,20.18
2023-05-03T11:59:33.521Z,20.24
2023-05-03T12:00:33.637Z,20.27
2023-05-03T12:01:33.482Z,20.33
2023-05-03T12:02:33.595Z,20.47
2023-05-03T12:03:34.363Z,20.59
2023-05-03T12:04:33.736Z,20.66
2023-05-03T12:05:33.580Z,20.80
2023-05-03T12:06:34.444Z,20.87
2023-05-03T12:07:33.621Z,21.04
2023-05-03T12:08:36.174Z,21.20
2023-05-03T12:09:33.663Z,21.26
2023-05-03T12:10:33.637Z,21.26
2023-05-03T12:11:35.871Z,21.16
2023-05-03T12:12:35.871Z,21.38
2023-05-03T12:13:34.692Z,21.39
2023-05-03T12:14:33.473Z,21.21
2023-05-03T12:15:33.762Z,21.26
2023-05-03T12:16:34.343Z,21.14
2023-05-03T12:17:33.841Z,21.16
2023-05-03T12:18:33.944Z,21.17
2023-05-03T12:19:34.666Z,21.08
2023-05-03T12:21:28.454Z,20.98
2023-05-03T12:21:35.644Z,20.86
2023-05-03T12:22:33.496Z,20.91
2023-05-03T12:23:34.504Z,21.05
2023-05-03T12:24:34.204Z,21.14
2023-05-03T12:25:34.424Z,21.26
2023-05-03T12:26:33.945Z,21.39
2023-05-03T12:27:33.234Z,21.46
2023-05-03T12:28:33.221Z,21.57
2023-05-03T12:29:35.418Z,21.67
2023-05-03T12:30:33.982Z,21.83
2023-05-03T12:31:34.749Z,21.98
2023-05-03T12:32:33.301Z,22.04
2023-05-03T12:33:33.766Z,22.19
2023-05-03T12:34:35.433Z,22.38
2023-05-03T12:35:34.444Z,22.59
2023-05-03T12:36:36.845Z,22.50
2023-05-03T12:37:33.477Z,22.25
2023-05-03T12:38:36.219Z,22.02
2023-05-03T12:39:33.541Z,21.99
2023-05-03T12:40:34.897Z,21.85
2023-05-03T12:42:05.402Z,21.76
2023-05-03T12:42:34.218Z,21.81
2023-05-03T12:43:33.090Z,21.67
2023-05-03T12:46:35.153Z,21.78
2023-05-03T12:47:36.080Z,21.71
2023-05-03T12:48:33.449Z,21.60
2023-05-03T12:49:33.113Z,21.76
2023-05-03T12:50:37.658Z,21.74
2023-05-03T12:51:34.192Z,21.67
2023-05-03T12:52:38.113Z,21.46
2023-05-03T12:53:36.751Z,21.09
2023-05-03T12:54:33.970Z,21.08
2023-05-03T12:55:33.362Z,20.83
2023-05-03T12:56:33.640Z,20.64
2023-05-03T12:57:36.842Z,20.68
2023-05-03T12:58:56.729Z,20.50
2023-05-03T12:59:41.261Z,20.33
2023-05-03T13:00:35.702Z,20.23
2023-05-03T13:03:34.569Z,20.58
2023-05-03T13:04:56.609Z,20.77
2023-05-03T13:05:35.725Z,20.74
2023-05-03T13:06:41.190Z,20.90
2023-05-03T13:07:41.830Z,21.20
2023-05-03T13:08:35.218Z,21.29
2023-05-03T13:10:12.371Z,21.32
2023-05-03T13:10:33.744Z,21.27